»·PEaware :: N323DE KSBP-KAJO

N323DE :: KSBP-KAJO

FLIGHT INFORMATION

Flight Status: Arrived
Operator: Privately registered:
United States
More flights under this callsign
Pilot: John H. (10732)
Aircraft: Unknown
(LEG2)
More flights by this aircraft type
Origin: KSBP San Luis Co Regl
United States
Destination: KAJO Corona Mun
United States
More flights between these airports :: More routes between these airports
Route: +WYNNR3 RZS V186 PDZ
File this flight plan on PilotEdge
Remarks: TEC Route SBAP51 with SID
Altitude:
(Current/Filed)
16,000ft
Speed:
(Current/Filed)
250kts
Departed: 16-May-19 08:30 PM
Arrived: 16-May-19 09:12 PM
Distance/Time
Traveled:
170nm/0:42
Distance/Time
To Go:
Arrived

Flight Plot

Page will automatically refresh every two minutes.

Flight plan parsing failed; only flown route is shown


Map Options




Map Legend


Flown Route
Filed Route
Departure Airport
Arrival Airport
Navaid (VOR, NDB)
Fix

Horizontal Profiles

Position Reports

Time Latitude Longitude Heading Altitude Ground
Speed
16-May-19 20:23 35.235870 -120.635740 300 215ft 0kts
16-May-19 20:24 35.235871 -120.635743 300 215ft 0kts
16-May-19 20:25 35.235872 -120.635746 300 215ft 0kts
16-May-19 20:26 35.235874 -120.635748 300 215ft 0kts
16-May-19 20:27 35.235955 -120.636697 298 215ft 10kts
16-May-19 20:27 35.239612 -120.643156 305 215ft 38kts
16-May-19 20:29 35.242602 -120.648886 221 215ft 0kts
16-May-19 20:29 35.237732 -120.641607 120 272ft 135kts
16-May-19 20:31 35.201166 -120.599464 142 1861ft 152kts
16-May-19 20:31 35.175564 -120.568188 106 2650ft 155kts
16-May-19 20:32 35.157966 -120.523541 115 4503ft 146kts
16-May-19 20:33 35.138772 -120.476417 114 5932ft 161kts
16-May-19 20:34 35.131889 -120.421832 89 7360ft 172kts
16-May-19 20:35 35.127763 -120.359873 91 9286ft 190kts
16-May-19 20:36 35.123252 -120.293688 92 11301ft 200kts
16-May-19 20:37 35.117349 -120.225121 107 13361ft 207kts
16-May-19 20:38 35.072594 -120.183117 152 15038ft 228kts
16-May-19 20:39 35.011477 -120.137020 153 15038ft 279kts
16-May-19 20:40 34.943555 -120.087023 153 15030ft 289kts
16-May-19 20:41 34.874900 -120.036727 153 15034ft 290kts
16-May-19 20:42 34.804778 -119.985479 153 15018ft 291kts
16-May-19 20:43 34.735321 -119.934823 154 14996ft 291kts
16-May-19 20:44 34.665903 -119.884305 154 15000ft 295kts
16-May-19 20:45 34.592340 -119.830889 153 14990ft 316kts
16-May-19 20:46 34.516840 -119.774638 145 14991ft 323kts
16-May-19 20:47 34.464335 -119.684273 126 14984ft 330kts
16-May-19 20:48 34.412937 -119.592069 126 14981ft 330kts
16-May-19 20:49 34.362244 -119.499475 125 14974ft 330kts
16-May-19 20:50 34.319921 -119.401610 97 14976ft 333kts
16-May-19 20:51 34.327518 -119.290717 84 14973ft 333kts
16-May-19 20:52 34.335023 -119.178738 83 14962ft 332kts
16-May-19 20:53 34.343120 -119.067747 83 14961ft 332kts
16-May-19 20:54 34.351301 -118.956215 83 14953ft 332kts
16-May-19 20:55 34.344343 -118.846893 120 14960ft 330kts
16-May-19 20:56 34.308241 -118.744600 111 14952ft 332kts
16-May-19 20:57 34.274438 -118.640841 113 14951ft 331kts
16-May-19 20:58 34.239244 -118.537336 113 14940ft 332kts
16-May-19 20:59 34.205296 -118.433572 110 14940ft 332kts
16-May-19 21:00 34.174078 -118.328787 111 14935ft 332kts
16-May-19 21:01 34.142288 -118.224046 111 14931ft 332kts
16-May-19 21:02 34.110423 -118.119781 111 14931ft 332kts
16-May-19 21:03 34.079256 -118.018298 112 14045ft 315kts
16-May-19 21:04 34.050198 -117.923920 111 12535ft 279kts
16-May-19 21:05 34.024412 -117.840434 111 11032ft 252kts
16-May-19 21:06 34.000772 -117.764166 110 9528ft 236kts
16-May-19 21:07 33.975996 -117.692827 114 8030ft 226kts
16-May-19 21:08 33.951131 -117.623530 117 6104ft 233kts
16-May-19 21:09 33.921070 -117.557859 122 4245ft 198kts
16-May-19 21:10 33.897224 -117.575987 277 1194ft 127kts
16-May-19 21:11 33.897563 -117.602293 222 536ft 11kts
16-May-19 21:12 33.896842 -117.601286 177 536ft 0kts
16-May-19 21:13 33.896842 -117.601286 177 536ft 0kts
16-May-19 21:14 33.896842 -117.601286 177 536ft 0kts

Navigation Log

Ident Type
Flight plan parsing failed, navigation log unavailable